Time;durP1;ratioP1;P1;durP2;ratioP2;P2;SDS_P1;SDS_P2;PMS_P1;PMS_P2;Temp;Humidity;BMP_temperature;BMP_pressure;BME280_temperature;BME280_humidity;BME280_pressure;Samples;Min_cycle;Max_cycle;Signal;HPM_P1;HPM_P2
2023/11/01 00:00:55;;;;;;;5.95;1.13;;;;;;;;;;4977574;28;20054;-79
2023/11/01 00:03:23;;;;;;;3.17;1.25;;;;;;;;;;4994708;28;20069;-79
2023/11/01 00:05:50;;;;;;;7.93;1.20;;;;;;;;;;4994830;28;20105;-78
2023/11/01 00:08:17;;;;;;;3.47;1.23;;;;;;;;;;4994905;28;20047;-79
2023/11/01 00:10:45;;;;;;;2.47;1.10;;;;;;;;;;4994890;28;20097;-79
2023/11/01 00:13:12;;;;;;;2.58;1.20;;;;;;;;;;4994175;28;20054;-79
2023/11/01 00:15:39;;;;;;;2.40;1.38;;;;;;;;;;4977223;28;20126;-79
2023/11/01 00:18:06;;;;;;;5.35;1.38;;;;;;;;;;4977153;28;20056;-80
2023/11/01 00:20:34;;;;;;;1.23;1.00;;;;;;;;;;4994054;28;20054;-78
2023/11/01 00:23:01;;;;;;;6.10;1.13;;;;;;;;;;4994547;28;20081;-80
2023/11/01 00:25:29;;;;;;;3.97;1.40;;;;;;;;;;4994300;28;20472;-79
2023/11/01 00:27:56;;;;;;;1.10;1.02;;;;;;;;;;4976523;28;20077;-79
2023/11/01 00:30:23;;;;;;;3.03;0.90;;;;;;;;;;4976613;28;20046;-78
2023/11/01 00:32:50;;;;;;;3.65;1.00;;;;;;;;;;4993796;28;20101;-78
2023/11/01 00:35:18;;;;;;;2.53;1.10;;;;;;;;;;4976695;28;20416;-79
2023/11/01 00:37:45;;;;;;;2.17;1.10;;;;;;;;;;4993669;28;20054;-79
2023/11/01 00:40:12;;;;;;;1.52;0.80;;;;;;;;;;4976218;28;20046;-79
2023/11/01 00:42:39;;;;;;;2.50;1.20;;;;;;;;;;4976313;28;20054;-79
2023/11/01 00:45:07;;;;;;;1.08;1.05;;;;;;;;;;4993726;28;20058;-78
2023/11/01 00:47:34;;;;;;;2.15;0.90;;;;;;;;;;4992999;28;20050;-78
2023/11/01 00:50:02;;;;;;;1.90;1.25;;;;;;;;;;4976414;28;20046;-78
2023/11/01 00:52:29;;;;;;;1.60;0.85;;;;;;;;;;4993459;28;20043;-78
2023/11/01 00:54:56;;;;;;;2.53;1.25;;;;;;;;;;4976441;28;20046;-78
2023/11/01 00:57:24;;;;;;;5.53;1.30;;;;;;;;;;4976270;28;20081;-79
2023/11/01 00:59:52;;;;;;;3.63;1.30;;;;;;;;;;4976235;28;20051;-78
2023/11/01 01:02:20;;;;;;;1.73;1.27;;;;;;;;;;4976117;28;20046;-79
2023/11/01 01:04:47;;;;;;;2.80;1.10;;;;;;;;;;4993351;28;20517;-79
2023/11/01 01:07:14;;;;;;;3.50;0.90;;;;;;;;;;4976019;28;20322;-79
2023/11/01 01:09:41;;;;;;;2.72;1.05;;;;;;;;;;4993416;28;20490;-79
2023/11/01 01:12:08;;;;;;;3.78;1.10;;;;;;;;;;4993062;28;20066;-79
2023/11/01 01:14:36;;;;;;;2.78;1.10;;;;;;;;;;5007078;28;20053;-80
2023/11/01 01:17:03;;;;;;;1.40;0.73;;;;;;;;;;4989105;28;20051;-80
2023/11/01 01:19:31;;;;;;;1.08;1.02;;;;;;;;;;4981788;28;20066;-79
2023/11/01 01:21:58;;;;;;;4.22;1.02;;;;;;;;;;4998380;28;20054;-79
2023/11/01 01:24:27;;;;;;;2.03;1.00;;;;;;;;;;4982345;28;20050;-80
2023/11/01 01:26:54;;;;;;;2.15;1.13;;;;;;;;;;4981701;28;20054;-80
2023/11/01 01:29:22;;;;;;;1.88;1.08;;;;;;;;;;4981980;28;20154;-79
2023/11/01 01:31:49;;;;;;;1.95;0.93;;;;;;;;;;4980237;28;20053;-79
2023/11/01 01:34:16;;;;;;;3.67;0.80;;;;;;;;;;4997471;28;20050;-79
2023/11/01 01:36:44;;;;;;;1.02;0.93;;;;;;;;;;4979310;28;20050;-79
2023/11/01 01:39:11;;;;;;;4.97;1.10;;;;;;;;;;4979736;28;20460;-80
2023/11/01 01:41:39;;;;;;;3.45;1.10;;;;;;;;;;4980129;28;20050;-79
2023/11/01 01:44:06;;;;;;;3.75;0.88;;;;;;;;;;4997110;28;20050;-79
2023/11/01 01:46:34;;;;;;;2.72;0.93;;;;;;;;;;4996820;28;20054;-79
2023/11/01 01:49:01;;;;;;;1.83;1.13;;;;;;;;;;4979614;28;20046;-80
2023/11/01 01:51:29;;;;;;;1.23;0.90;;;;;;;;;;4979251;28;20047;-79
2023/11/01 01:53:56;;;;;;;5.45;0.85;;;;;;;;;;4996127;28;20050;-79
2023/11/01 01:56:25;;;;;;;1.15;0.90;;;;;;;;;;4996805;28;20116;-79
2023/11/01 01:58:53;;;;;;;1.10;0.80;;;;;;;;;;4979161;28;20054;-79
2023/11/01 02:01:20;;;;;;;0.90;0.70;;;;;;;;;;4982510;28;20461;-79
2023/11/01 02:04:03;;;;;;;1.75;0.93;;;;;;;;;;4984607;28;20050;-79
2023/11/01 02:06:31;;;;;;;2.00;0.60;;;;;;;;;;4982114;28;20476;-79
2023/11/01 02:08:58;;;;;;;4.55;0.65;;;;;;;;;;4981245;28;20051;-79
2023/11/01 02:11:25;;;;;;;4.10;0.98;;;;;;;;;;4998224;28;20058;-79
2023/11/01 02:13:52;;;;;;;1.10;0.90;;;;;;;;;;4998178;28;20046;-80
2023/11/01 02:16:19;;;;;;;2.83;0.80;;;;;;;;;;4980960;28;20046;-79
2023/11/01 02:18:47;;;;;;;2.95;0.90;;;;;;;;;;4980998;28;20097;-79
2023/11/01 02:21:14;;;;;;;1.60;0.93;;;;;;;;;;4980348;28;20050;-79
2023/11/01 02:23:43;;;;;;;4.05;0.75;;;;;;;;;;4979929;28;20501;-79
2023/11/01 02:26:10;;;;;;;0.75;0.68;;;;;;;;;;4997756;28;20050;-79
2023/11/01 02:28:37;;;;;;;1.67;0.75;;;;;;;;;;4997927;28;20070;-79
2023/11/01 02:31:05;;;;;;;2.75;0.90;;;;;;;;;;4979990;28;20054;-79
2023/11/01 02:33:32;;;;;;;1.40;0.88;;;;;;;;;;4997174;28;20512;-79
2023/11/01 02:35:59;;;;;;;0.88;0.80;;;;;;;;;;4980081;28;20053;-79
2023/11/01 02:38:26;;;;;;;2.90;0.75;;;;;;;;;;4997563;28;20055;-80
2023/11/01 02:40:54;;;;;;;1.85;0.80;;;;;;;;;;4980519;28;20082;-79
2023/11/01 02:43:21;;;;;;;3.75;0.80;;;;;;;;;;4996953;28;20133;-79
2023/11/01 02:45:48;;;;;;;1.75;0.73;;;;;;;;;;4980072;28;20096;-79
2023/11/01 02:48:15;;;;;;;2.97;1.00;;;;;;;;;;4979900;28;20054;-79
2023/11/01 02:50:43;;;;;;;2.67;1.00;;;;;;;;;;4980028;28;20042;-79
2023/11/01 02:53:10;;;;;;;2.78;0.70;;;;;;;;;;4979169;28;20047;-79
2023/11/01 02:55:38;;;;;;;1.77;0.77;;;;;;;;;;4996663;28;20046;-79
2023/11/01 02:58:05;;;;;;;4.03;0.63;;;;;;;;;;4996441;28;20117;-79
2023/11/01 03:00:33;;;;;;;4.20;1.00;;;;;;;;;;4978777;28;20470;-79
2023/11/01 03:03:00;;;;;;;2.28;0.80;;;;;;;;;;4997024;28;20054;-79
2023/11/01 03:05:28;;;;;;;3.53;0.80;;;;;;;;;;4996324;28;20053;-79
2023/11/01 03:07:56;;;;;;;3.65;0.70;;;;;;;;;;4978502;28;20469;-80
2023/11/01 03:10:23;;;;;;;0.82;0.60;;;;;;;;;;4995386;28;20134;-79
2023/11/01 03:12:51;;;;;;;2.90;0.80;;;;;;;;;;4977628;28;20065;-78
2023/11/01 03:15:18;;;;;;;3.25;1.10;;;;;;;;;;4995539;28;20053;-79
2023/11/01 03:17:47;;;;;;;4.28;0.85;;;;;;;;;;4978219;28;20120;-79
2023/11/01 03:20:14;;;;;;;2.50;0.82;;;;;;;;;;4995654;28;20121;-79
2023/11/01 03:22:42;;;;;;;2.15;0.90;;;;;;;;;;4995525;28;20417;-80
2023/11/01 03:25:09;;;;;;;2.60;1.05;;;;;;;;;;4994841;28;20429;-79
2023/11/01 03:27:36;;;;;;;3.80;0.88;;;;;;;;;;4995480;28;20046;-79
2023/11/01 03:30:04;;;;;;;1.65;0.90;;;;;;;;;;4995281;28;20093;-80
2023/11/01 03:32:31;;;;;;;2.17;0.95;;;;;;;;;;4977638;28;20548;-79
2023/11/01 03:34:58;;;;;;;3.08;1.25;;;;;;;;;;4977758;28;20046;-79
2023/11/01 03:37:26;;;;;;;3.15;1.10;;;;;;;;;;4977407;28;20050;-79
2023/11/01 03:39:53;;;;;;;2.15;1.35;;;;;;;;;;4994799;28;20062;-78
2023/11/01 03:42:21;;;;;;;1.55;0.80;;;;;;;;;;4995201;28;20062;-80
2023/11/01 03:44:49;;;;;;;3.00;0.93;;;;;;;;;;4995300;28;20433;-79
2023/11/01 03:47:17;;;;;;;1.50;0.80;;;;;;;;;;4994720;28;20050;-79
2023/11/01 03:49:44;;;;;;;2.33;0.90;;;;;;;;;;4977264;28;20069;-80
2023/11/01 03:52:12;;;;;;;2.67;0.77;;;;;;;;;;4994365;28;20129;-79
2023/11/01 03:54:39;;;;;;;4.32;0.90;;;;;;;;;;4993271;28;20054;-80
2023/11/01 03:57:06;;;;;;;4.38;1.20;;;;;;;;;;4994593;28;20050;-80
2023/11/01 03:59:34;;;;;;;4.35;0.98;;;;;;;;;;4977398;28;20050;-79
2023/11/01 04:02:02;;;;;;;3.97;1.25;;;;;;;;;;4992792;28;20082;-79
2023/11/01 04:04:29;;;;;;;2.88;1.33;;;;;;;;;;4988528;28;20133;-78
2023/11/01 04:06:57;;;;;;;4.88;1.20;;;;;;;;;;4976958;28;20137;-79
2023/11/01 04:09:24;;;;;;;3.03;1.05;;;;;;;;;;4976899;28;20043;-79
2023/11/01 04:11:51;;;;;;;2.60;0.93;;;;;;;;;;4994296;28;20050;-80
2023/11/01 04:14:19;;;;;;;6.38;1.15;;;;;;;;;;4977230;28;20047;-79
2023/11/01 04:16:46;;;;;;;2.67;0.82;;;;;;;;;;4994335;28;20133;-79
2023/11/01 04:19:14;;;;;;;1.52;0.90;;;;;;;;;;4977446;28;20481;-79
2023/11/01 04:21:42;;;;;;;1.25;0.80;;;;;;;;;;4994435;28;20050;-79
2023/11/01 04:24:09;;;;;;;2.10;0.93;;;;;;;;;;4976107;28;20141;-79
2023/11/01 04:26:37;;;;;;;7.07;1.00;;;;;;;;;;4977262;28;20054;-79
2023/11/01 04:29:05;;;;;;;2.47;0.70;;;;;;;;;;4977120;28;20050;-79
2023/11/01 04:31:32;;;;;;;1.90;0.60;;;;;;;;;;4976827;28;20074;-80
2023/11/01 04:34:00;;;;;;;1.77;0.90;;;;;;;;;;4993773;28;20093;-79
2023/11/01 04:36:27;;;;;;;0.75;0.50;;;;;;;;;;4978652;28;20054;-80
2023/11/01 04:38:55;;;;;;;3.05;0.60;;;;;;;;;;4981672;28;20054;-81
2023/11/01 04:41:26;;;;;;;1.92;0.68;;;;;;;;;;4981670;28;20050;-80
2023/11/01 04:43:55;;;;;;;2.97;0.70;;;;;;;;;;4997815;28;20077;-81
2023/11/01 04:46:22;;;;;;;1.80;0.80;;;;;;;;;;4979539;28;20054;-81
2023/11/01 04:48:50;;;;;;;0.50;0.50;;;;;;;;;;4997549;28;20061;-80
2023/11/01 04:51:17;;;;;;;0.50;0.40;;;;;;;;;;4982637;28;20059;-80
2023/11/01 04:53:45;;;;;;;2.38;1.55;;;;;;;;;;4998214;28;20494;-80
2023/11/01 04:56:12;;;;;;;7.88;5.28;;;;;;;;;;4997722;28;20046;-80
2023/11/01 04:58:40;;;;;;;14.15;9.00;;;;;;;;;;4997783;28;20129;-80
2023/11/01 05:01:07;;;;;;;3.63;3.33;;;;;;;;;;4979595;28;20054;-81
2023/11/01 05:03:36;;;;;;;1.90;1.80;;;;;;;;;;4996405;28;20073;-80
2023/11/01 05:06:04;;;;;;;2.15;0.57;;;;;;;;;;4978547;28;20076;-81
2023/11/01 05:08:32;;;;;;;1.17;0.85;;;;;;;;;;4978983;28;20057;-79
2023/11/01 05:10:59;;;;;;;0.88;0.63;;;;;;;;;;4978190;28;20078;-79
2023/11/01 05:13:27;;;;;;;0.57;0.30;;;;;;;;;;4977863;28;20119;-80
2023/11/01 05:15:54;;;;;;;0.77;0.38;;;;;;;;;;4995657;28;20042;-79
2023/11/01 05:18:24;;;;;;;2.53;0.90;;;;;;;;;;4996255;28;20101;-80
2023/11/01 05:20:51;;;;;;;2.60;2.40;;;;;;;;;;4994946;28;20129;-80
2023/11/01 05:23:19;;;;;;;2.72;2.20;;;;;;;;;;4977983;28;20480;-80
2023/11/01 05:25:48;;;;;;;1.35;1.20;;;;;;;;;;4995342;28;20421;-80
2023/11/01 05:28:16;;;;;;;1.85;0.70;;;;;;;;;;4994924;28;20054;-80
2023/11/01 05:30:46;;;;;;;0.65;0.40;;;;;;;;;;4977444;28;20587;-80
2023/11/01 05:33:14;;;;;;;0.50;0.40;;;;;;;;;;4977549;28;20047;-79
2023/11/01 05:35:42;;;;;;;1.02;0.50;;;;;;;;;;4981014;28;20050;-80
2023/11/01 05:38:09;;;;;;;0.50;0.30;;;;;;;;;;4998098;28;20136;-79
2023/11/01 05:40:37;;;;;;;1.88;0.70;;;;;;;;;;4981489;28;20496;-81
2023/11/01 05:43:07;;;;;;;2.63;2.47;;;;;;;;;;4980624;28;20125;-80
2023/11/01 05:45:34;;;;;;;1.88;1.63;;;;;;;;;;4998419;28;20100;-80
2023/11/01 05:48:07;;;;;;;1.83;1.08;;;;;;;;;;4981153;28;20062;-79
2023/11/01 05:50:36;;;;;;;1.42;0.80;;;;;;;;;;4980756;28;20417;-79
2023/11/01 05:53:08;;;;;;;1.75;0.77;;;;;;;;;;4980935;28;20536;-80
2023/11/01 05:55:39;;;;;;;3.60;0.90;;;;;;;;;;4981058;28;20489;-80
2023/11/01 05:58:28;;;;;;;2.80;0.95;;;;;;;;;;4991940;28;20047;-80
2023/11/01 06:00:55;;;;;;;2.72;0.80;;;;;;;;;;4998105;28;20462;-80
2023/11/01 06:03:25;;;;;;;3.17;0.55;;;;;;;;;;4980492;28;20097;-80
2023/11/01 06:05:57;;;;;;;1.48;0.60;;;;;;;;;;4997768;28;20423;-80
2023/11/01 06:08:25;;;;;;;0.60;0.43;;;;;;;;;;4997197;28;20057;-79
2023/11/01 06:10:56;;;;;;;4.00;0.70;;;;;;;;;;4997542;28;20421;-80
2023/11/01 06:13:23;;;;;;;0.50;0.50;;;;;;;;;;4980244;28;20046;-80
2023/11/01 06:15:51;;;;;;;2.22;0.60;;;;;;;;;;4997935;28;20065;-79
2023/11/01 06:18:20;;;;;;;0.70;0.32;;;;;;;;;;4979668;28;20057;-80
2023/11/01 06:20:48;;;;;;;1.02;0.40;;;;;;;;;;4979441;28;20050;-78
2023/11/01 06:23:15;;;;;;;3.70;0.50;;;;;;;;;;4996673;28;20042;-79
2023/11/01 06:25:42;;;;;;;0.20;0.20;;;;;;;;;;4996323;28;20134;-79
2023/11/01 06:28:10;;;;;;;0.57;0.32;;;;;;;;;;4996556;28;20065;-79
2023/11/01 06:30:37;;;;;;;0.70;0.38;;;;;;;;;;4978923;28;20120;-79
2023/11/01 06:33:04;;;;;;;0.30;0.30;;;;;;;;;;4996254;28;20050;-80
2023/11/01 06:35:31;;;;;;;3.08;0.60;;;;;;;;;;4979067;28;20485;-79
2023/11/01 06:37:59;;;;;;;1.30;0.57;;;;;;;;;;4978853;28;20112;-79
2023/11/01 06:40:26;;;;;;;0.73;0.50;;;;;;;;;;4995939;28;20054;-80
2023/11/01 06:42:53;;;;;;;0.85;0.50;;;;;;;;;;4996357;28;20050;-79
2023/11/01 06:45:21;;;;;;;1.25;0.70;;;;;;;;;;4978175;28;20054;-80
2023/11/01 06:47:48;;;;;;;0.43;0.43;;;;;;;;;;4980157;28;20050;-80
2023/11/01 06:50:16;;;;;;;2.08;0.20;;;;;;;;;;4995478;28;20497;-80
2023/11/01 06:52:45;;;;;;;0.82;0.30;;;;;;;;;;4996343;28;20046;-80
2023/11/01 06:55:13;;;;;;;0.82;0.45;;;;;;;;;;4978764;28;20097;-80
2023/11/01 06:57:40;;;;;;;1.58;0.30;;;;;;;;;;4978886;28;20093;-80
2023/11/01 07:00:08;;;;;;;1.50;0.50;;;;;;;;;;4996135;28;20497;-79
2023/11/01 07:02:36;;;;;;;0.43;0.43;;;;;;;;;;4996035;28;20500;-80
2023/11/01 07:05:07;;;;;;;0.30;0.30;;;;;;;;;;4978671;28;20085;-79
2023/11/01 07:07:34;;;;;;;1.65;0.50;;;;;;;;;;4978856;28;20054;-81
2023/11/01 07:10:01;;;;;;;1.52;0.40;;;;;;;;;;4978088;28;20121;-79
2023/11/01 07:12:29;;;;;;;1.08;0.60;;;;;;;;;;4995653;28;20065;-79
2023/11/01 07:14:56;;;;;;;0.77;0.30;;;;;;;;;;4978820;28;20046;-81
2023/11/01 07:17:26;;;;;;;1.40;0.50;;;;;;;;;;4978359;28;20061;-81
2023/11/01 07:19:55;;;;;;;0.55;0.50;;;;;;;;;;4996224;28;20046;-80
2023/11/01 07:22:22;;;;;;;2.70;2.45;;;;;;;;;;4996357;28;20464;-80
2023/11/01 07:24:49;;;;;;;1.60;0.90;;;;;;;;;;4995521;28;20496;-79
2023/11/01 07:27:17;;;;;;;0.85;0.30;;;;;;;;;;4978251;28;20058;-79
2023/11/01 07:29:44;;;;;;;1.48;0.30;;;;;;;;;;4995802;28;20054;-79
2023/11/01 07:32:11;;;;;;;3.60;0.40;;;;;;;;;;4995557;28;20082;-80
2023/11/01 07:34:40;;;;;;;0.60;0.32;;;;;;;;;;4995476;28;20058;-80
2023/11/01 07:37:07;;;;;;;0.80;0.10;;;;;;;;;;4995025;28;20501;-80
2023/11/01 07:39:34;;;;;;;0.25;0.20;;;;;;;;;;4995555;28;20050;-79
2023/11/01 07:42:02;;;;;;;2.83;0.20;;;;;;;;;;4994889;28;20453;-80
2023/11/01 07:44:29;;;;;;;0.40;0.30;;;;;;;;;;4977679;28;20050;-80
2023/11/01 07:46:56;;;;;;;5.47;0.40;;;;;;;;;;4995228;28;20087;-80
2023/11/01 07:49:23;;;;;;;0.77;0.40;;;;;;;;;;4995275;28;20101;-80
2023/11/01 07:51:51;;;;;;;1.55;0.40;;;;;;;;;;4994965;28;20046;-80
2023/11/01 07:54:19;;;;;;;2.63;0.98;;;;;;;;;;4977291;28;20056;-79
2023/11/01 07:56:47;;;;;;;1.20;0.40;;;;;;;;;;4977997;28;20055;-79
2023/11/01 07:59:14;;;;;;;1.42;0.50;;;;;;;;;;4987215;28;20149;-79
2023/11/01 08:01:42;;;;;;;2.22;0.65;;;;;;;;;;4981064;28;20449;-79
2023/11/01 08:04:09;;;;;;;1.27;0.60;;;;;;;;;;5006752;28;20058;-79
2023/11/01 08:06:37;;;;;;;1.10;0.40;;;;;;;;;;4998367;28;20046;-81
2023/11/01 08:09:05;;;;;;;1.90;0.60;;;;;;;;;;4998018;28;20050;-81
2023/11/01 08:11:32;;;;;;;2.50;0.55;;;;;;;;;;4980693;28;20054;-82
2023/11/01 08:13:59;;;;;;;6.43;0.75;;;;;;;;;;4980325;28;20051;-80
2023/11/01 08:16:26;;;;;;;1.92;0.80;;;;;;;;;;4980249;28;20105;-79
2023/11/01 08:18:54;;;;;;;2.83;0.95;;;;;;;;;;4980297;28;20153;-81
2023/11/01 08:21:21;;;;;;;1.48;0.70;;;;;;;;;;4998228;28;20046;-80
2023/11/01 08:23:49;;;;;;;5.50;1.15;;;;;;;;;;4997965;28;20054;-79
2023/11/01 08:26:19;;;;;;;3.75;0.70;;;;;;;;;;4996643;28;20133;-81
2023/11/01 08:28:47;;;;;;;4.38;0.77;;;;;;;;;;4980505;28;20129;-80
2023/11/01 08:31:15;;;;;;;5.13;0.93;;;;;;;;;;4979619;28;20065;-80
2023/11/01 08:33:42;;;;;;;5.10;0.75;;;;;;;;;;4996326;28;20054;-81
2023/11/01 08:36:10;;;;;;;4.88;0.82;;;;;;;;;;4979741;28;20560;-80
2023/11/01 08:38:37;;;;;;;3.78;0.68;;;;;;;;;;4979402;28;20050;-80
2023/11/01 08:41:04;;;;;;;4.03;0.68;;;;;;;;;;4996876;28;20062;-81
2023/11/01 08:43:32;;;;;;;2.58;0.70;;;;;;;;;;4979070;28;20054;-80
2023/11/01 08:45:59;;;;;;;2.50;0.85;;;;;;;;;;4996145;28;20109;-81
2023/11/01 08:48:27;;;;;;;3.75;1.02;;;;;;;;;;4978137;28;20561;-81
2023/11/01 08:50:54;;;;;;;5.32;0.88;;;;;;;;;;4996020;28;20403;-80
2023/11/01 08:53:21;;;;;;;5.82;1.00;;;;;;;;;;4995581;28;20084;-80
2023/11/01 08:55:53;;;;;;;4.38;1.00;;;;;;;;;;4978881;28;20050;-81
2023/11/01 08:58:20;;;;;;;5.28;1.42;;;;;;;;;;4995481;28;20450;-81
2023/11/01 09:00:48;;;;;;;4.55;0.98;;;;;;;;;;4995106;28;20046;-80
2023/11/01 09:03:16;;;;;;;1.73;0.80;;;;;;;;;;4995471;28;20054;-82
2023/11/01 09:05:44;;;;;;;3.65;0.98;;;;;;;;;;4995180;28;20050;-80
2023/11/01 09:08:11;;;;;;;3.28;0.93;;;;;;;;;;4977935;28;20133;-81
2023/11/01 09:10:38;;;;;;;3.80;0.70;;;;;;;;;;4994689;28;20050;-80
2023/11/01 09:13:06;;;;;;;3.00;0.82;;;;;;;;;;4977778;28;20046;-80
2023/11/01 09:15:33;;;;;;;3.50;0.90;;;;;;;;;;4995048;28;20047;-79
2023/11/01 09:18:00;;;;;;;5.90;1.17;;;;;;;;;;4978038;28;20046;-80
2023/11/01 09:20:27;;;;;;;4.22;0.80;;;;;;;;;;4977925;28;20050;-79
2023/11/01 09:22:56;;;;;;;7.47;0.95;;;;;;;;;;4994800;28;20050;-81
2023/11/01 09:25:24;;;;;;;4.47;1.20;;;;;;;;;;4977738;28;20516;-80
2023/11/01 09:27:51;;;;;;;4.35;1.17;;;;;;;;;;4994984;28;20054;-80
2023/11/01 09:30:18;;;;;;;5.20;0.80;;;;;;;;;;4994336;28;20089;-80
2023/11/01 09:32:46;;;;;;;2.97;0.93;;;;;;;;;;4977077;28;20046;-80
2023/11/01 09:35:13;;;;;;;4.10;1.20;;;;;;;;;;4994161;28;20053;-81
2023/11/01 09:37:40;;;;;;;2.67;0.82;;;;;;;;;;4994479;28;20093;-81
2023/11/01 09:40:10;;;;;;;3.45;0.60;;;;;;;;;;4994190;28;20170;-81
2023/11/01 09:42:39;;;;;;;3.10;0.80;;;;;;;;;;4994258;28;20133;-80
2023/11/01 09:45:12;;;;;;;7.53;1.23;;;;;;;;;;4993956;28;20060;-80
2023/11/01 09:47:39;;;;;;;9.30;1.35;;;;;;;;;;4994118;28;20133;-80
2023/11/01 09:50:08;;;;;;;13.18;1.75;;;;;;;;;;4976276;28;20046;-80
2023/11/01 09:52:35;;;;;;;12.38;2.28;;;;;;;;;;4976463;28;20057;-80
2023/11/01 09:55:04;;;;;;;17.67;1.65;;;;;;;;;;4993906;28;20051;-80
2023/11/01 09:57:34;;;;;;;4.90;0.90;;;;;;;;;;4993912;28;20082;-81
2023/11/01 10:00:07;;;;;;;5.38;1.10;;;;;;;;;;4976060;28;20053;-80
2023/11/01 10:02:34;;;;;;;5.80;0.90;;;;;;;;;;4976595;28;20112;-79
2023/11/01 10:05:02;;;;;;;5.13;1.27;;;;;;;;;;4976577;28;20082;-79
2023/11/01 10:07:29;;;;;;;19.92;1.58;;;;;;;;;;4993795;28;20058;-80
2023/11/01 10:09:57;;;;;;;7.13;1.45;;;;;;;;;;4976000;28;20046;-80
2023/11/01 10:12:25;;;;;;;3.95;0.93;;;;;;;;;;4993277;28;20054;-80
2023/11/01 10:14:53;;;;;;;6.65;0.98;;;;;;;;;;4976356;28;20050;-79
2023/11/01 10:17:20;;;;;;;5.07;1.10;;;;;;;;;;4993423;28;20058;-80
2023/11/01 10:19:47;;;;;;;4.47;1.52;;;;;;;;;;4975904;28;20101;-81
2023/11/01 10:22:15;;;;;;;2.95;0.80;;;;;;;;;;4987610;28;20050;-80
2023/11/01 10:24:43;;;;;;;6.32;1.25;;;;;;;;;;4997034;28;20057;-80
2023/11/01 10:27:10;;;;;;;2.83;0.90;;;;;;;;;;4996681;28;20056;-80
2023/11/01 10:29:46;;;;;;;5.47;1.45;;;;;;;;;;4979228;28;20052;-80
2023/11/01 10:32:14;;;;;;;4.90;1.48;;;;;;;;;;4996788;28;20046;-80
2023/11/01 10:34:41;;;;;;;5.25;1.42;;;;;;;;;;4996542;28;20050;-79
2023/11/01 10:37:09;;;;;;;12.52;1.20;;;;;;;;;;4979591;28;20107;-80
2023/11/01 10:39:39;;;;;;;4.82;0.77;;;;;;;;;;4979453;28;20046;-79
2023/11/01 10:42:09;;;;;;;6.32;1.10;;;;;;;;;;4979424;28;20046;-80
2023/11/01 10:44:36;;;;;;;6.38;1.20;;;;;;;;;;4979194;28;20417;-79
2023/11/01 10:47:04;;;;;;;3.30;0.90;;;;;;;;;;4996460;28;20050;-79
2023/11/01 10:49:32;;;;;;;1.90;0.75;;;;;;;;;;4996494;28;20133;-80
2023/11/01 10:52:00;;;;;;;3.08;0.93;;;;;;;;;;4996249;28;20050;-80
2023/11/01 10:54:28;;;;;;;6.20;1.00;;;;;;;;;;4996183;28;20101;-80
2023/11/01 10:56:56;;;;;;;8.65;1.48;;;;;;;;;;4996109;28;20046;-80
2023/11/01 10:59:29;;;;;;;2.92;1.00;;;;;;;;;;4996399;28;20070;-81
2023/11/01 11:02:04;;;;;;;8.88;1.00;;;;;;;;;;4996306;28;20433;-81
2023/11/01 11:04:46;;;;;;;5.35;1.00;;;;;;;;;;4978859;28;20445;-80
2023/11/01 11:07:16;;;;;;;6.00;1.33;;;;;;;;;;4995910;28;20152;-79
2023/11/01 11:10:11;;;;;;;5.88;0.95;;;;;;;;;;4979646;28;20058;-80
2023/11/01 11:12:38;;;;;;;3.58;0.98;;;;;;;;;;4995752;28;20125;-80
2023/11/01 11:15:05;;;;;;;9.13;1.13;;;;;;;;;;4978755;28;20097;-80
2023/11/01 11:17:38;;;;;;;4.50;1.00;;;;;;;;;;4979050;28;20077;-79
2023/11/01 11:20:16;;;;;;;6.25;1.25;;;;;;;;;;4978763;28;20050;-80
2023/11/01 11:23:02;;;;;;;4.13;1.10;;;;;;;;;;4978471;28;20133;-81
2023/11/01 11:25:40;;;;;;;5.40;1.10;;;;;;;;;;4978681;28;20050;-80
2023/11/01 11:28:11;;;;;;;9.77;1.45;;;;;;;;;;4985470;28;20110;-80
2023/11/01 11:30:45;;;;;;;3.83;1.13;;;;;;;;;;5010082;28;20130;-82
2023/11/01 11:33:13;;;;;;;6.85;1.00;;;;;;;;;;5004544;28;20049;-80
2023/11/01 11:36:08;;;;;;;4.53;1.23;;;;;;;;;;4999397;28;20576;-80
2023/11/01 11:38:36;;;;;;;4.35;1.05;;;;;;;;;;4998547;28;20413;-80
2023/11/01 11:41:14;;;;;;;5.57;1.20;;;;;;;;;;4980521;28;20050;-81
2023/11/01 11:44:00;;;;;;;2.63;0.85;;;;;;;;;;4980438;28;20050;-81
2023/11/01 11:46:31;;;;;;;5.47;1.10;;;;;;;;;;4980689;28;20054;-80
2023/11/01 11:48:59;;;;;;;10.30;1.10;;;;;;;;;;4997020;28;20054;-81
2023/11/01 11:51:27;;;;;;;8.57;1.40;;;;;;;;;;4997026;28;20101;-80
2023/11/01 11:53:54;;;;;;;6.25;1.00;;;;;;;;;;4996878;28;20047;-80
2023/11/01 11:56:22;;;;;;;8.32;1.25;;;;;;;;;;4996985;28;20121;-82
2023/11/01 11:58:50;;;;;;;7.20;1.02;;;;;;;;;;4979206;28;20101;-80
2023/11/01 12:01:26;;;;;;;4.85;0.82;;;;;;;;;;4997004;28;20505;-81
2023/11/01 12:04:00;;;;;;;5.85;1.02;;;;;;;;;;4996896;28;20060;-81
2023/11/01 12:06:41;;;;;;;5.82;1.10;;;;;;;;;;4997052;28;20093;-80
2023/11/01 12:09:17;;;;;;;10.27;1.40;;;;;;;;;;4996301;28;20046;-80
2023/11/01 12:11:45;;;;;;;5.43;1.27;;;;;;;;;;4996145;28;20421;-79
2023/11/01 12:14:17;;;;;;;3.15;1.20;;;;;;;;;;4978448;28;20053;-80
2023/11/01 12:16:44;;;;;;;6.05;1.10;;;;;;;;;;4978702;28;20066;-80
2023/11/01 12:19:19;;;;;;;1.90;0.98;;;;;;;;;;4977800;28;20050;-80
2023/11/01 12:21:47;;;;;;;2.33;0.82;;;;;;;;;;4978688;28;20046;-80
2023/11/01 12:24:15;;;;;;;3.70;1.05;;;;;;;;;;4995535;28;20101;-80
2023/11/01 12:26:56;;;;;;;4.63;1.10;;;;;;;;;;4978382;28;20567;-80
2023/11/01 12:29:29;;;;;;;4.05;1.13;;;;;;;;;;4977814;28;20073;-80
2023/11/01 12:31:57;;;;;;;;;;;;;;;;;;4978257;28;20050;-81
2023/11/01 12:34:24;;;;;;;4.25;1.00;;;;;;;;;;4994885;28;19925;-81
2023/11/01 12:37:01;;;;;;;8.68;1.08;;;;;;;;;;4977342;28;20088;-80
2023/11/01 12:39:28;;;;;;;10.02;1.33;;;;;;;;;;4978077;28;20117;-80
2023/11/01 12:41:56;;;;;;;3.20;1.05;;;;;;;;;;4977858;28;20089;-80
2023/11/01 12:44:24;;;;;;;4.47;1.17;;;;;;;;;;4976503;28;20054;-80
2023/11/01 12:46:51;;;;;;;4.05;0.95;;;;;;;;;;4994683;28;20057;-79
2023/11/01 12:49:18;;;;;;;4.53;0.93;;;;;;;;;;4994606;28;20050;-79
2023/11/01 12:51:46;;;;;;;5.65;0.90;;;;;;;;;;4994431;28;20097;-81
2023/11/01 12:54:13;;;;;;;3.53;0.80;;;;;;;;;;4994439;28;20093;-78
2023/11/01 12:56:40;;;;;;;5.05;0.90;;;;;;;;;;4994376;28;20047;-80
2023/11/01 12:59:07;;;;;;;1.48;0.55;;;;;;;;;;4977327;28;20417;-79
2023/11/01 13:01:36;;;;;;;5.75;1.00;;;;;;;;;;4994662;28;20077;-80
2023/11/01 13:04:03;;;;;;;9.60;0.98;;;;;;;;;;4976815;28;20562;-80
2023/11/01 13:06:31;;;;;;;4.80;1.00;;;;;;;;;;4994756;28;20077;-80
2023/11/01 13:08:58;;;;;;;2.60;0.80;;;;;;;;;;4976596;28;20049;-81
2023/11/01 13:11:26;;;;;;;3.33;0.90;;;;;;;;;;4994272;28;20078;-80
2023/11/01 13:13:53;;;;;;;2.90;1.00;;;;;;;;;;4993595;28;20057;-80
2023/11/01 13:16:20;;;;;;;2.38;0.73;;;;;;;;;;4976291;28;20421;-80
2023/11/01 13:18:48;;;;;;;6.40;1.10;;;;;;;;;;4976820;28;20046;-79
2023/11/01 13:21:15;;;;;;;4.60;1.05;;;;;;;;;;4993799;28;20058;-80
2023/11/01 13:23:44;;;;;;;6.00;1.38;;;;;;;;;;4993741;28;20054;-80
2023/11/01 13:26:11;;;;;;;3.25;0.90;;;;;;;;;;4994302;28;20058;-81
2023/11/01 13:28:42;;;;;;;3.42;0.93;;;;;;;;;;4993837;28;20046;-79
2023/11/01 13:31:09;;;;;;;5.70;1.60;;;;;;;;;;4993661;28;20137;-79
2023/11/01 13:33:36;;;;;;;4.13;0.98;;;;;;;;;;4993576;28;20444;-80
2023/11/01 13:36:04;;;;;;;5.80;0.98;;;;;;;;;;4976285;28;20117;-79
2023/11/01 13:38:31;;;;;;;4.68;0.80;;;;;;;;;;4993659;28;20543;-79
2023/11/01 13:40:59;;;;;;;3.67;0.82;;;;;;;;;;4977733;28;20051;-80
2023/11/01 13:43:26;;;;;;;11.02;1.10;;;;;;;;;;4978078;28;20054;-81
2023/11/01 13:45:53;;;;;;;2.58;0.85;;;;;;;;;;4977908;28;20050;-80
2023/11/01 13:48:22;;;;;;;7.03;1.35;;;;;;;;;;4978006;28;20058;-81
2023/11/01 13:50:49;;;;;;;13.27;1.30;;;;;;;;;;4977767;28;20057;-78
2023/11/01 13:53:17;;;;;;;5.88;1.13;;;;;;;;;;4993373;28;20154;-79
2023/11/01 13:55:48;;;;;;;10.38;1.92;;;;;;;;;;4977689;28;20042;-79
2023/11/01 13:58:16;;;;;;;4.38;1.30;;;;;;;;;;4979372;28;20046;-80
2023/11/01 14:00:44;;;;;;;3.63;0.90;;;;;;;;;;4979673;28;20050;-79
2023/11/01 14:03:11;;;;;;;4.03;0.70;;;;;;;;;;4979496;28;20112;-79
2023/11/01 14:05:40;;;;;;;3.97;1.15;;;;;;;;;;4979747;28;20050;-80
2023/11/01 14:08:08;;;;;;;6.72;1.83;;;;;;;;;;4979444;28;20047;-79
2023/11/01 14:10:37;;;;;;;10.43;1.48;;;;;;;;;;4979494;28;20137;-79
2023/11/01 14:13:06;;;;;;;5.13;1.05;;;;;;;;;;4996194;28;20116;-81
2023/11/01 14:15:34;;;;;;;6.00;1.40;;;;;;;;;;4996733;28;20046;-80
2023/11/01 14:18:04;;;;;;;4.97;0.75;;;;;;;;;;4979619;28;20061;-79
2023/11/01 14:20:33;;;;;;;7.63;1.08;;;;;;;;;;4997262;28;20046;-80
2023/11/01 14:23:00;;;;;;;6.50;1.17;;;;;;;;;;4978913;28;20062;-80
2023/11/01 14:25:32;;;;;;;5.20;1.40;;;;;;;;;;4996386;28;20054;-79
2023/11/01 14:28:00;;;;;;;3.95;0.95;;;;;;;;;;4979255;28;20050;-80
2023/11/01 14:30:28;;;;;;;3.50;0.85;;;;;;;;;;4979371;28;20052;-79
2023/11/01 14:32:55;;;;;;;4.63;0.80;;;;;;;;;;4979502;28;20474;-79
2023/11/01 14:35:22;;;;;;;5.82;0.73;;;;;;;;;;4995216;28;20050;-80
2023/11/01 14:37:49;;;;;;;5.57;1.08;;;;;;;;;;4978886;28;20053;-79
2023/11/01 14:40:17;;;;;;;5.45;1.02;;;;;;;;;;4978785;28;20101;-79
2023/11/01 14:42:44;;;;;;;4.20;0.95;;;;;;;;;;4978689;28;20054;-80
2023/11/01 14:45:12;;;;;;;6.57;0.98;;;;;;;;;;4978620;28;20058;-80
2023/11/01 14:47:40;;;;;;;3.08;1.00;;;;;;;;;;4978655;28;20058;-80
2023/11/01 14:50:10;;;;;;;2.88;0.65;;;;;;;;;;4978758;28;20054;-79